OE3UKW Weather Reports


Display with metric or nautical units.
time (UTC)temp
F
wind
direction
speed
MPH
gust
MPH
rain 1hr
in
rain 24hr
in
rain mn
in
humidity
%
barometer
mb
20221207164309 39 234 9.0 13.0 0.00 0.01 0.00 74 1015.2
20221207164123 39 236 10.0 13.0 0.00 0.01 0.00 74 1015.7
20221207163309 39 238 13.0 15.0 0.00 0.01 0.00 74 1015.1
20221207163123 39 241 10.0 14.0 0.00 0.01 0.00 74 1015.6
20221207162309 39 241 10.0 13.0 0.00 0.01 0.00 73 1015.1
20221207162123 39 243 10.0 13.0 0.00 0.01 0.00 74 1015.7
20221207161309 39 240 10.0 12.0 0.00 0.01 0.00 74 1015.2
20221207161123 39 244 9.0 11.0 0.00 0.01 0.00 74 1015.7
20221207160309 39 228 8.0 12.0 0.00 0.01 0.00 73 1015.4
20221207160123 39 224 9.0 12.0 0.00 0.01 0.00 73 1015.8
20221207155309 39 238 9.0 11.0 0.00 0.01 0.00 73 1015.3
20221207155123 39 225 9.0 13.0 0.00 0.01 0.00 73 1015.7
20221207154309 39 236 8.0 11.0 0.00 0.01 0.00 73 1015.3
20221207154123 39 240 7.0 11.0 0.00 0.01 0.00 73 1015.8
20221207153123 39 236 7.0 10.0 0.00 0.01 0.00 73 1015.7
20221207152309 39 221 7.0 9.0 0.00 0.01 0.00 73 1015.2
20221207152123 39 231 6.0 9.0 0.00 0.01 0.00 72 1015.7
20221207151310 40 223 6.0 10.0 0.00 0.01 0.00 72 1015.2
20221207151123 39 236 8.0 10.0 0.00 0.01 0.00 71 1015.7
20221207150310 40 241 10.0 13.0 0.00 0.01 0.00 71 1015.2
20221207150123 39 244 9.0 13.0 0.00 0.01 0.00 71 1015.7
20221207145310 40 229 8.0 12.0 0.00 0.01 0.00 71 1015.2
20221207145123 40 227 9.0 12.0 0.00 0.01 0.00 70 1015.5
20221207144310 41 234 10.0 13.0 0.00 0.01 0.00 70 1015.0
20221207144123 40 232 10.0 13.0 0.00 0.01 0.00 69 1015.5
20221207143310 41 244 10.0 15.0 0.00 0.01 0.00 69 1015.0
20221207143123 41 241 12.0 16.0 0.00 0.01 0.00 69 1015.4
20221207142123 42 252 10.0 15.0 0.00 0.01 0.00 68 1015.6
20221207141310 43 245 10.0 16.0 0.00 0.01 0.00 67 1015.0
20221207141123 43 264 11.0 16.0 0.00 0.01 0.00 67 1015.4
20221207140310 44 229 13.0 15.0 0.00 0.01 0.00 64 1015.0
20221207140123 44 239 9.0 13.0 0.00 0.01 0.00 63 1015.4
20221207135123 44 239 5.0 9.0 0.00 0.01 0.00 63 1015.2
20221207134310 44 266 4.0 14.0 0.00 0.02 0.00 63 1015.0
20221207134123 43 290 10.0 14.0 0.00 0.02 0.00 63 1015.5
20221207133310 44 245 9.0 16.0 0.00 0.02 0.00 62 1014.8
20221207133123 43 250 8.0 13.0 0.00 0.02 0.00 63 1015.3
20221207132308 43 294 11.0 17.0 0.00 0.02 0.00 62 1014.9
20221207132123 43 280 8.0 15.0 0.00 0.02 0.00 63 1015.3
20221207131308 43 284 8.0 13.0 0.00 0.02 0.00 63 1014.9
20221207131123 43 260 9.0 14.0 0.00 0.02 0.00 62 1015.4
20221207130308 43 273 8.0 16.0 0.00 0.02 0.00 64 1014.9
20221207130123 42 267 10.0 18.0 0.00 0.02 0.00 63 1015.4
20221207125308 43 261 8.0 13.0 0.00 0.02 0.00 62 1014.9
20221207125123 43 190 11.0 18.0 0.00 0.02 0.00 62 1015.3
20221207124308 44 234 9.0 19.0 0.00 0.02 0.00 64 1015.0
20221207124123 43 280 12.0 20.0 0.00 0.03 0.00 62 1015.5
20221207123123 44 281 11.0 17.0 0.00 0.03 0.00 63 1015.5
20221207122308 44 244 15.0 21.0 0.00 0.02 0.00 62 1015.0
20221207122123 44 294 12.0 21.0 0.00 0.03 0.00 62 1015.5
20221207121308 45 303 9.0 14.0 0.00 0.02 0.00 64 1015.0
20221207121123 44 256 8.0 14.0 0.00 0.03 0.00 65 1015.4
20221207120309 44 282 9.0 15.0 0.00 0.02 0.00 63 1015.1
20221207120123 44 261 9.0 15.0 0.00 0.03 0.00 65 1015.5
20221207115123 44 278 6.0 12.0 0.00 0.03 0.00 66 1015.6
20221207114309 42 264 7.0 13.0 0.00 0.03 0.00 71 1015.2
20221207114123 41 265 8.0 13.0 0.00 0.04 0.00 70 1015.7
20221207113309 42 279 7.0 12.0 0.00 0.03 0.00 68 1015.3
20221207113123 42 256 9.0 13.0 0.00 0.04 0.00 68 1015.6
20221207112309 43 263 13.0 16.0 0.00 0.03 0.00 68 1015.3
20221207112123 42 266 11.0 17.0 0.00 0.04 0.00 67 1015.7
20221207111309 43 254 9.0 19.0 0.00 0.03 0.00 66 1015.3
20221207111124 43 273 11.0 19.0 0.00 0.04 0.00 66 1015.7
20221207110309 44 294 7.0 13.0 0.00 0.03 0.00 68 1015.4
20221207110123 44 261 9.0 13.0 0.00 0.04 0.00 68 1015.8
20221207105309 43 286 7.0 15.0 0.00 0.04 0.00 72 1015.5
20221207105126 42 266 10.0 16.0 0.00 0.04 0.00 72 1016.0
20221207104309 42 294 11.0 16.0 0.00 0.04 0.00 71 1015.3
20221207104124 42 265 7.0 14.0 0.00 0.05 0.00 72 1016.1
20221207103309 42 244 4.0 13.0 0.00 0.04 0.00 73 1015.4
20221207103124 42 264 8.0 13.0 0.00 0.05 0.00 73 1016.1
20221207102310 42 237 9.0 18.0 0.00 0.04 0.00 77 1015.5
20221207102124 41 269 10.0 18.0 0.00 0.05 0.00 76 1016.1
20221207101124 40 262 9.0 16.0 0.00 0.05 0.00 81 1016.2
20221207100309 40 259 12.0 15.0 0.00 0.04 0.00 81 1015.8
20221207100124 39 247 9.0 11.0 0.00 0.05 0.00 81 1016.4
20221207095309 40 275 9.0 14.0 0.00 0.05 0.00 82 1015.8
20221207095124 39 233 10.0 13.0 0.00 0.05 0.00 82 1016.5
20221207094309 40 254 10.0 14.0 0.00 0.05 0.00 83 1016.0
20221207094124 39 255 7.0 12.0 0.00 0.07 0.00 83 1016.5
20221207093309 40 237 9.0 12.0 0.00 0.05 0.00 83 1016.0
20221207093124 39 234 8.0 12.0 0.00 0.07 0.00 83 1016.5
20221207092124 39 227 9.0 12.0 0.00 0.07 0.00 83 1016.7
20221207091310 39 255 8.0 11.0 0.00 0.05 0.00 84 1016.2
20221207091124 39 240 6.0 11.0 0.00 0.07 0.00 84 1016.7
20221207090310 39 238 6.0 8.0 0.00 0.05 0.00 84 1016.2
20221207090124 39 241 7.0 8.0 0.00 0.07 0.00 84 1016.7
20221207085310 39 234 8.0 10.0 0.00 0.06 0.00 84 1016.1
20221207085124 39 245 7.0 10.0 0.00 0.07 0.00 84 1016.6
20221207084310 39 237 9.0 10.0 0.00 0.06 0.00 84 1016.1
20221207084124 38 227 5.0 10.0 0.00 0.07 0.00 84 1016.6
20221207083310 38 337 1.0 6.0 0.00 0.06 0.00 84 1015.8
20221207083124 38 337 4.0 6.0 0.00 0.07 0.00 84 1016.3
20221207082310 38 321 4.0 5.0 0.00 0.06 0.00 84 1015.7
20221207082124 38 293 4.0 6.0 0.00 0.07 0.00 84 1016.4
20221207081310 38 243 5.0 8.0 0.00 0.06 0.00 84 1015.9
20221207081124 38 233 4.0 6.0 0.00 0.07 0.00 84 1016.5
20221207080308 38 237 5.0 6.0 0.00 0.06 0.00 84 1015.9
20221207080124 38 225 4.0 6.0 0.00 0.07 0.00 84 1016.5
20221207075308 38 244 4.0 8.0 0.00 0.06 0.00 84 1015.8
20221207075124 38 242 6.0 8.0 0.00 0.07 0.00 84 1016.6
20221207074308 38 246 6.0 9.0 0.00 0.06 0.00 84 1015.9
20221207074124 37 250 6.0 9.0 0.00 0.07 0.00 84 1016.8
20221207073308 38 245 5.0 8.0 0.00 0.06 0.00 84 1015.7
20221207073124 37 260 6.0 8.0 0.00 0.07 0.00 84 1016.7
20221207072124 37 247 5.0 7.0 0.00 0.07 0.00 83 1016.7
20221207071308 38 244 5.0 7.0 0.00 0.06 0.00 83 1015.8
20221207071124 37 238 4.0 7.0 0.00 0.07 0.00 83 1016.8
20221207070308 38 247 3.0 5.0 0.00 0.06 0.00 83 1015.8
20221207070124 37 242 4.0 5.0 0.00 0.07 0.00 83 1016.8
20221207065308 38 242 3.0 5.0 0.00 0.06 0.00 83 1015.5
20221207065124 37 242 4.0 8.0 0.00 0.07 0.00 83 1016.6
20221207064309 38 244 5.0 8.0 0.00 0.06 0.00 83 1015.5
20221207064124 37 237 6.0 8.0 0.00 0.07 0.00 83 1016.6
20221207063308 38 240 5.0 8.0 0.00 0.06 0.00 83 1015.6
20221207063124 37 251 5.0 8.0 0.00 0.07 0.00 83 1016.8
20221207062308 38 246 4.0 6.0 0.00 0.06 0.00 83 1015.4
20221207062124 37 237 4.0 6.0 0.00 0.07 0.00 83 1016.6
20221207061308 38 240 4.0 5.0 0.00 0.06 0.00 83 1015.4
20221207061124 37 241 5.0 7.0 0.00 0.07 0.00 83 1016.6
20221207060308 38 240 5.0 8.0 0.00 0.06 0.00 83 1015.5
20221207060124 38 240 5.0 8.0 0.00 0.07 0.00 83 1016.6
20221207055308 38 254 6.0 8.0 0.00 0.06 0.00 83 1015.3
20221207055124 38 243 4.0 8.0 0.00 0.07 0.00 83 1016.6
20221207054309 38 247 4.0 7.0 0.00 0.06 0.00 83 1015.3
20221207054124 38 251 5.0 9.0 0.00 0.07 0.00 83 1016.5
20221207053309 38 249 7.0 9.0 0.00 0.06 0.00 83 1015.4
20221207053124 38 256 6.0 9.0 0.00 0.07 0.00 83 1016.5
20221207052309 38 252 5.0 10.0 0.00 0.06 0.00 83 1015.3
20221207052124 38 259 5.0 10.0 0.00 0.07 0.00 83 1016.5
20221207051309 38 244 5.0 9.0 0.00 0.06 0.00 83 1015.4
20221207051124 38 250 6.0 9.0 0.00 0.07 0.00 83 1016.5
20221207050124 38 241 7.0 10.0 0.00 0.07 0.00 83 1016.5
20221207045309 38 247 7.0 9.0 0.00 0.06 0.00 82 1015.4
20221207045124 38 236 7.0 9.0 0.00 0.07 0.00 82 1016.5
20221207044309 38 238 7.0 9.0 0.00 0.06 0.00 82 1015.5
20221207044124 38 242 6.0 9.0 0.00 0.07 0.00 82 1016.5
20221207043124 38 245 5.0 8.0 0.00 0.07 0.00 82 1016.5
20221207042309 38 242 5.0 7.0 0.00 0.06 0.00 82 1015.4
20221207042124 38 246 4.0 6.0 0.00 0.07 0.00 82 1016.4
20221207041309 38 254 2.0 6.0 0.00 0.06 0.00 82 1015.4
20221207041124 38 249 4.0 6.0 0.00 0.07 0.00 82 1016.4
20221207040309 38 252 4.0 7.0 0.00 0.06 0.00 81 1015.4
20221207040124 38 248 5.0 8.0 0.00 0.07 0.00 82 1016.2
20221207035124 38 261 5.0 8.0 0.00 0.07 0.00 81 1016.2
20221207034309 39 266 4.0 9.0 0.00 0.06 0.00 81 1015.5
20221207034124 38 277 5.0 9.0 0.00 0.07 0.00 81 1016.3
20221207033309 39 281 3.0 10.0 0.00 0.06 0.00 81 1015.3
20221207033124 38 263 5.0 10.0 0.00 0.07 0.00 81 1016.2
20221207032124 38 279 4.0 7.0 0.00 0.07 0.00 81 1016.2
20221207031310 39 267 5.0 11.0 0.00 0.06 0.00 82 1015.4
20221207031124 38 285 6.0 11.0 0.00 0.07 0.00 82 1016.2
20221207030309 39 272 7.0 11.0 0.00 0.06 0.00 82 1015.4
20221207030124 38 263 6.0 11.0 0.00 0.07 0.00 81 1016.2
20221207025309 39 263 5.0 12.0 0.00 0.06 0.00 82 1015.3
20221207025124 39 265 7.0 12.0 0.00 0.07 0.00 82 1016.3
20221207024309 39 281 7.0 13.0 0.00 0.06 0.00 82 1015.5
20221207024124 38 293 7.0 13.0 0.00 0.07 0.00 82 1016.3
20221207023309 39 266 6.0 10.0 0.00 0.06 0.00 82 1015.5
20221207023124 38 304 7.0 10.0 0.00 0.07 0.00 82 1016.4
20221207022309 39 319 6.0 11.0 0.00 0.06 0.00 82 1015.4
20221207022124 38 306 6.0 12.0 0.00 0.07 0.00 82 1016.4
20221207021309 39 294 6.0 10.0 0.00 0.06 0.00 82 1015.6
20221207021124 39 296 7.0 10.0 0.00 0.07 0.00 82 1016.3
20221207020310 39 293 6.0 10.0 0.00 0.06 0.00 82 1015.5
20221207020125 39 300 7.0 11.0 0.00 0.07 0.00 82 1016.4
20221207015309 39 292 8.0 11.0 0.00 0.06 0.00 82 1015.5
20221207015125 39 254 7.0 12.0 0.00 0.07 0.00 82 1016.4
20221207014125 39 251 8.0 14.0 0.00 0.07 0.00 82 1016.5
20221207013309 39 270 8.0 12.0 0.00 0.06 0.00 82 1015.7
20221207013125 39 265 7.0 12.0 0.00 0.07 0.00 82 1016.5
20221207012309 39 271 6.0 13.0 0.00 0.06 0.00 82 1015.8
20221207012125 39 261 7.0 13.0 0.00 0.07 0.00 82 1016.6
20221207011309 39 274 7.0 13.0 0.00 0.06 0.00 82 1015.8
20221207011125 39 294 8.0 13.0 0.00 0.07 0.00 82 1016.6
20221207010309 39 271 8.0 13.0 0.00 0.06 0.00 82 1015.9
20221207010125 39 265 8.0 13.0 0.00 0.07 0.00 82 1016.6
20221207005309 39 258 8.0 14.0 0.00 0.06 0.00 82 1015.7
20221207005125 39 240 9.0 14.0 0.00 0.07 0.00 82 1016.4
20221207004309 39 246 10.0 14.0 0.00 0.06 0.00 82 1015.7
20221207004125 39 258 8.0 14.0 0.00 0.07 0.00 83 1016.5
20221207003309 39 282 6.0 13.0 0.00 0.06 0.00 83 1015.8
20221207003125 39 275 8.0 13.0 0.00 0.07 0.00 83 1016.6
20221207002125 39 247 9.0 16.0 0.00 0.07 0.00 83 1016.5
20221207001309 39 246 10.0 16.0 0.00 0.06 0.00 83 1015.8
20221207001125 39 260 10.0 16.0 0.00 0.07 0.00 83 1016.6
20221207000309 39 275 9.0 16.0 0.00 0.06 0.00 83 1015.8
20221207000125 39 264 9.0 15.0 0.00 0.07 0.00 83 1016.6
20221206235309 39 273 9.0 15.0 0.00 0.08 0.00 83 1015.6
20221206235125 38 268 10.0 15.0 0.00 0.07 0.00 83 1016.6
20221206234309 38 273 10.0 15.0 0.00 0.08 0.00 83 1015.6
20221206234125 38 238 9.0 16.0 0.00 0.11 0.00 83 1016.7
20221206233309 38 286 10.0 13.0 0.00 0.08 0.00 83 1015.6
20221206233125 38 273 9.0 14.0 0.00 0.11 0.00 83 1016.8
20221206232309 38 254 7.0 10.0 0.01 0.08 0.00 82 1015.7
20221206232125 37 253 5.0 10.0 0.01 0.11 0.13 82 1016.9
20221206231310 38 288 3.0 6.0 0.01 0.08 0.00 82 1015.7
20221206231125 37 284 2.0 6.0 0.01 0.11 0.13 82 1016.9
20221206230309 38 296 1.0 3.0 0.01 0.08 0.00 82 1015.8
20221206230125 37 303 0.0 3.0 0.01 0.11 0.13 82 1016.9
20221206225310 38 303 0.0 0.0 0.01 0.11 0.11 82 1015.8
20221206225125 37 303 0.0 0.0 0.01 0.11 0.13 82 1016.9
20221206224310 38 303 0.0 0.0 0.01 0.11 0.11 82 1015.9
20221206224125 38 303 1.0 1.0 0.01 0.17 0.13 82 1017.0
20221206223310 38 303 1.0 3.0 0.01 0.11 0.11 82 1016.1
20221206223125 38 303 2.0 3.0 0.01 0.17 0.13 82 1017.1
20221206222310 38 303 2.0 3.0 0.00 0.10 0.10 82 1016.1
20221206222125 38 303 2.0 3.0 0.00 0.16 0.12 82 1017.2
20221206221310 38 302 2.0 4.0 0.00 0.10 0.10 82 1016.1
20221206221125 38 286 3.0 6.0 0.00 0.16 0.12 82 1017.2
20221206220310 38 273 3.0 8.0 0.00 0.10 0.10 82 1016.2
20221206220125 38 268 3.0 8.0 0.00 0.16 0.12 82 1017.4
20221206215125 38 263 4.0 8.0 0.00 0.16 0.12 82 1017.4
20221206214125 38 263 5.0 8.0 0.00 0.17 0.12 82 1017.3
20221206213310 38 288 6.0 9.0 0.00 0.13 0.10 82 1016.2
20221206213125 38 277 5.0 8.0 0.00 0.17 0.12 82 1017.3
20221206212310 39 256 6.0 9.0 0.00 0.13 0.10 82 1016.2
20221206212125 38 232 5.0 9.0 0.00 0.17 0.12 82 1017.3
20221206211310 39 279 8.0 10.0 0.00 0.13 0.10 82 1016.3
20221206211125 38 294 8.0 10.0 0.00 0.17 0.12 82 1017.3
20221206210308 39 282 10.0 15.0 0.01 0.09 0.10 85 1017.0
20221206210125 38 304 10.0 15.0 0.00 0.17 0.12 82 1017.4
20221206205308 38 294 8.0 17.0 0.00 0.13 0.10 82 1016.3
20221206205125 38 312 6.0 16.0 0.00 0.17 0.12 82 1017.4
20221206204309 38 281 4.0 8.0 0.00 0.13 0.10 82 1016.2
20221206204125 38 257 4.0 8.0 0.00 0.17 0.12 82 1017.1
20221206203308 38 273 4.0 11.0 0.00 0.13 0.10 82 1016.2
20221206203125 38 296 5.0 11.0 0.00 0.17 0.12 82 1017.0
20221206202308 38 272 4.0 7.0 0.00 0.13 0.10 82 1016.1
20221206202125 38 281 4.0 7.0 0.00 0.17 0.12 82 1017.0
20221206201308 38 273 4.0 8.0 0.00 0.13 0.10 82 1016.2
20221206201125 38 273 3.0 8.0 0.00 0.17 0.12 82 1017.2
20221206200308 38 292 3.0 8.0 0.00 0.13 0.10 82 1016.2
20221206200125 38 276 4.0 8.0 0.00 0.17 0.12 82 1017.2
20221206195308 38 268 3.0 6.0 0.00 0.13 0.10 82 1016.2
20221206193125 38 284 3.0 6.0 0.00 0.17 0.12 82 1017.1
20221206192308 38 269 3.0 6.0 0.00 0.13 0.10 82 1016.2
20221206192125 38 262 4.0 6.0 0.00 0.17 0.12 82 1017.3
20221206191308 38 267 6.0 9.0 0.00 0.13 0.10 82 1016.1
20221206191125 38 263 4.0 8.0 0.00 0.17 0.12 82 1017.3
20221206190125 38 264 4.0 6.0 0.00 0.17 0.12 82 1017.4
20221206185308 38 260 3.0 6.0 0.00 0.14 0.10 82 1016.3
20221206185125 38 260 2.0 6.0 0.00 0.17 0.12 82 1017.3
20221206184309 39 257 3.0 7.0 0.00 0.14 0.10 82 1016.2
20221206184125 38 281 4.0 7.0 0.00 0.18 0.12 82 1017.3
20221206183309 39 279 5.0 8.0 0.00 0.14 0.10 82 1016.4
20221206183125 38 267 6.0 10.0 0.00 0.18 0.12 82 1017.4
20221206182309 39 244 5.0 9.0 0.00 0.14 0.10 82 1016.5
20221206182125 38 273 6.0 10.0 0.00 0.18 0.12 82 1017.5
20221206181309 38 265 7.0 11.0 0.00 0.14 0.10 82 1016.5
20221206181125 38 238 8.0 11.0 0.00 0.18 0.12 82 1017.5
20221206180309 38 267 7.0 12.0 0.00 0.14 0.10 82 1016.5
20221206180125 38 273 7.0 11.0 0.00 0.18 0.12 82 1017.6
20221206175309 38 267 6.0 12.0 0.00 0.14 0.10 82 1016.5
20221206175125 38 263 6.0 11.0 0.00 0.18 0.12 82 1017.7
20221206174309 39 261 6.0 9.0 0.00 0.14 0.10 82 1016.5
20221206174126 38 249 5.0 9.0 0.00 0.19 0.12 82 1017.6
20221206173125 38 252 6.0 9.0 0.00 0.19 0.12 82 1017.6
20221206172309 39 258 6.0 10.0 0.00 0.14 0.10 82 1016.5
20221206172125 38 242 7.0 10.0 0.00 0.19 0.12 82 1017.5
20221206171309 39 245 9.0 11.0 0.00 0.14 0.10 82 1016.4
20221206171126 38 244 8.0 11.0 0.00 0.19 0.12 82 1017.4
20221206170309 39 263 8.0 14.0 0.00 0.14 0.10 82 1016.5
20221206170126 38 251 9.0 12.0 0.00 0.19 0.12 82 1017.4
20221206165309 39 234 8.0 12.0 0.00 0.16 0.10 83 1016.5
20221206165126 38 242 10.0 12.0 0.00 0.19 0.12 83 1017.4